• Join FlightAware (Why Join?)
  • Login
  • US Flag 
09:35AM EDT


 

Airport Tracker/Info


-or-


 

Live Flight TrackerFlight Track Log ✈ UAL495 ✈ 29-Apr-2013 ✈ KLAX - KDEN

Flight Track Log - Related Links

Times and Time Zones

All times are in EDT time to prevent confusion due to time zone crossing. See the UAL495 flight status page for this flight to view local times or setup timezone preferences in your user account.

Time Position Orientation Groundspeed Altitude Reporting Facility
EDT Latitude Longitude Course Direction KTS MPH feet Rate Location/Type
09:26AM 33.9333 -118.4333 90° East 183 211 1,400  Level Southern California TRACON
09:27AM 33.9000 -118.5000 239° Southwest 235 270 3,600 2,280 Climbing Southern California TRACON
09:27AM 33.8892 -118.5139 227° Southwest 238 274 4,300 2,760 Climbing Los Angeles Center
09:28AM 33.7830 -118.6440 132° Southeast  Level FlightAware Approximate
09:28AM 33.8283 -118.5611 213° Southwest 277 319 7,200  Level Los Angeles Center
09:29AM 33.7038 -118.5422 134° Southeast  Level FlightAware Approximate
09:29AM 33.7522 -118.5347 164° South 288 331 10,200  Level Los Angeles Center
09:30AM 33.6660 -118.4150 116° Southeast  Level FlightAware Approximate
09:30AM 33.6831 -118.4883 151° Southeast 320 368 12,400  Level Los Angeles Center
09:31AM 33.6334 -118.2847 90° East  Level FlightAware Approximate
09:31AM 33.6572 -118.3836 106° East 335 386 14,600  Level Los Angeles Center
09:32AM 33.6514 -118.2706 94° East 362 417 16,500 1,680 Climbing Los Angeles Center
09:33AM 33.7414 -118.1583 46° Northeast 408 470 18,100 1,620 Climbing Los Angeles Center
09:34AM 33.8261 -118.0633 43° Northeast 420 483 19,800 1,860 Climbing Los Angeles Center
09:35AM 33.9172 -117.9656 42° Northeast 439 505 22,000 1,860 Climbing Los Angeles Center
09:36AM 34.0089 -117.8653 42° Northeast 446 513 23,700 1,560 Climbing Los Angeles Center
09:37AM 34.1022 -117.7606 43° Northeast 457 526 25,200 1,500 Climbing Los Angeles Center
09:38AM 34.1892 -117.6428 48° Northeast 470 541 26,800 1,680 Climbing Los Angeles Center
09:39AM 34.2761 -117.5231 49° Northeast 474 545 28,700 2,100 Climbing Los Angeles Center
09:40AM 34.3758 -117.3817 49° Northeast 463 533 31,200 1,800 Climbing Los Angeles Center
09:41AM 34.4439 -117.2792 51° Northeast 457 526 32,400 1,260 Climbing Los Angeles Center
09:42AM 34.5244 -117.1611 50° Northeast 458 527 33,900 1,500 Climbing Los Angeles Center
09:43AM 34.6194 -117.0219 50° Northeast 452 520 35,500 1,260 Climbing Los Angeles Center
09:44AM 34.6997 -116.9069 50° Northeast 450 518 36,500 720 Climbing Los Angeles Center
09:45AM 34.7778 -116.7886 51° Northeast 450 518 37,000 240 Climbing Los Angeles Center
09:46AM 34.8567 -116.6750 50° Northeast 444 511 37,000  Level Los Angeles Center
09:47AM 34.9325 -116.5597 51° Northeast 439 505 37,000  Level Los Angeles Center
09:48AM 35.0103 -116.4444 51° Northeast 440 506 37,000  Level Los Angeles Center
09:49AM 35.0881 -116.3281 51° Northeast 443 510 37,000  Level Los Angeles Center
09:50AM 35.1822 -116.1875 51° Northeast 446 513 37,000  Level Los Angeles Center
09:51AM 35.2608 -116.0714 50° Northeast 445 512 37,000  Level Los Angeles Center
09:52AM 35.3375 -115.9542 51° Northeast 444 511 37,000  Level Los Angeles Center
09:53AM 35.4144 -115.8381 51° Northeast 441 507 37,000  Level Los Angeles Center
09:54AM 35.5031 -115.7078 50° Northeast 438 504 37,000  Level Los Angeles Center
09:56AM 35.5786 -115.5936 51° Northeast 432 497 37,000  Level Los Angeles Center
09:57AM 35.6700 -115.4522 51° Northeast 440 506 37,000  Level Los Angeles Center
09:58AM 35.7467 -115.3344 51° Northeast 442 509 37,000  Level Los Angeles Center
09:59AM 35.8222 -115.2175 51° Northeast 441 507 37,000  Level Los Angeles Center
10:00AM 35.8975 -115.0986 52° Northeast 442 509 37,000  Level Los Angeles Center
10:01AM 35.9881 -114.9583 51° Northeast 439 505 37,000  Level Los Angeles Center
10:02AM 36.0639 -114.8403 52° Northeast 440 506 37,000  Level Los Angeles Center
10:03AM 36.1403 -114.7217 51° Northeast 442 509 37,000  Level Los Angeles Center
10:04AM 36.2161 -114.6033 52° Northeast 440 506 37,000  Level Los Angeles Center
10:05AM 36.2917 -114.4842 52° Northeast 441 507 37,000  Level Los Angeles Center
10:06AM 36.3689 -114.3653 51° Northeast 442 509 37,000  Level Los Angeles Center
10:07AM 36.4442 -114.2447 52° Northeast 443 510 37,000  Level Los Angeles Center
10:08AM 36.5297 -114.1100 52° Northeast 443 510 37,000  Level Los Angeles Center
10:09AM 36.6067 -113.9883 52° Northeast 447 514 37,000  Level Los Angeles Center
10:10AM 36.6825 -113.8661 52° Northeast 447 514 37,000  Level Los Angeles Center
10:11AM 36.7589 -113.7431 52° Northeast 448 516 37,000  Level Los Angeles Center
10:12AM 36.8344 -113.6217 52° Northeast 445 512 37,000  Level Los Angeles Center
10:13AM 36.9253 -113.4744 52° Northeast 446 513 37,000  Level Los Angeles Center
10:14AM 37.0006 -113.3522 52° Northeast 445 512 37,000  Level Los Angeles Center
10:15AM 37.0756 -113.2289 53° Northeast 446 513 37,000  Level Los Angeles Center
10:16AM 37.1347 -113.1319 53° Northeast 444 511 37,000  Level Salt Lake Center
10:17AM 37.2089 -113.0100 53° Northeast 443 510 37,000  Level Salt Lake Center
10:18AM 37.2831 -112.8881 53° Northeast 443 510 37,000  Level Salt Lake Center
10:19AM 37.3708 -112.7411 53° Northeast 443 510 37,000  Level Salt Lake Center
10:20AM 37.4442 -112.6186 53° Northeast 446 513 37,000  Level Salt Lake Center
10:21AM 37.5178 -112.4967 53° Northeast 444 511 37,000  Level Salt Lake Center
10:22AM 37.5914 -112.3742 53° Northeast 443 510 37,000  Level Salt Lake Center
10:23AM 37.6639 -112.2514 53° Northeast 441 507 37,000  Level Salt Lake Center
10:24AM 37.7369 -112.1289 53° Northeast 439 505 37,000  Level Salt Lake Center
10:25AM 37.8083 -112.0064 54° Northeast 435 501 37,000  Level Salt Lake Center
10:26AM 37.8953 -111.8594 53° Northeast 435 501 37,000  Level Salt Lake Center
10:27AM 37.9669 -111.7383 53° Northeast 432 497 37,000  Level Salt Lake Center
10:28AM 38.0386 -111.6150 54° Northeast 434 499 37,000  Level Salt Lake Center
10:29AM 38.1136 -111.4894 53° Northeast 444 511 37,000  Level Salt Lake Center
10:30AM 38.1875 -111.3636 53° Northeast 446 513 37,000  Level Salt Lake Center
10:31AM 38.2592 -111.2369 54° Northeast 444 511 37,000  Level Salt Lake Center
10:32AM 38.3322 -111.1100 54° Northeast 444 511 37,000  Level Salt Lake Center
10:33AM 38.4058 -110.9833 53° Northeast 445 512 37,000  Level Salt Lake Center
10:34AM 38.4903 -110.8339 54° Northeast 448 516 37,000  Level Salt Lake Center
10:36AM 38.5606 -110.7106 54° Northeast 447 514 37,000  Level Salt Lake Center
10:36AM 38.6175 -110.6047 55° Northeast 450 518 37,000  Level Denver Center
10:37AM 38.6433 -110.5658 50° Northeast 452 520 37,000  Level Salt Lake Center
10:38AM 38.7136 -110.4403 54° Northeast 453 521 37,000  Level Salt Lake Center
10:38AM 38.7700 -110.3344 56° Northeast 451 519 37,000  Level Denver Center
10:39AM 38.8389 -110.2067 55° Northeast 454 522 37,000  Level Denver Center
10:40AM 38.9206 -110.0606 54° Northeast 452 520 37,000  Level Denver Center
10:41AM 38.9342 -110.0419 47° Northeast 452 520 37,000  Level Salt Lake Center
10:42AM 39.0169 -109.8947 54° Northeast 454 522 37,000  Level Salt Lake Center
10:42AM 39.0739 -109.7853 56° Northeast 457 526 37,000  Level Denver Center
10:43AM 39.1433 -109.6558 55° Northeast 458 527 37,000  Level Denver Center
10:44AM 39.1683 -109.6158 51° Northeast 458 527 37,000  Level Salt Lake Center
10:45AM 39.2378 -109.4889 55° Northeast 455 524 37,000  Level Salt Lake Center
10:46AM 39.3186 -109.3392 55° Northeast 454 522 37,000  Level Salt Lake Center
10:47AM 39.3753 -109.2319 56° Northeast 452 520 37,000  Level Denver Center
10:48AM 39.4478 -109.1069 53° Northeast 454 522 37,000  Level Denver Center
10:49AM 39.5153 -108.9769 56° Northeast 454 522 37,000  Level Denver Center
10:50AM 39.5969 -108.8231 55° Northeast 451 519 37,000  Level Denver Center
10:51AM 39.6636 -108.6986 55° Northeast 456 525 37,000  Level Denver Center
10:52AM 39.7394 -108.5561 55° Northeast 455 524 37,000  Level Denver Center
10:53AM 39.8203 -108.4025 56° Northeast 461 531 37,000  Level Denver Center
10:54AM 39.8908 -108.2692 55° Northeast 463 533 37,000  Level Denver Center
10:55AM 39.9856 -108.1397 46° Northeast 438 504 37,000  Level Denver Center
10:56AM 40.0200 -107.9797 74° East 475 547 37,000  Level Denver Center
10:57AM 40.0467 -107.7875 80° East 482 555 37,000  Level Denver Center
10:58AM 40.0706 -107.6233 79° East 481 554 37,000  Level Denver Center
10:59AM 40.0972 -107.4331 80° East 478 550 37,000  Level Denver Center
11:00AM 40.1194 -107.2689 80° East 478 550 37,000  Level Denver Center
11:01AM 40.1458 -107.0792 80° East 476 548 37,000 -180 Level Denver Center
11:02AM 40.1678 -106.9175 80° East 472 543 36,700 -720 Descending Denver Center
11:03AM 40.1883 -106.7561 80° East 469 540 35,500 -2,100 Descending Denver Center
11:04AM 40.2178 -106.5375 80° East 470 541 32,000 -2,940 Descending Denver Center
11:05AM 40.2419 -106.3483 80° East 480 552 29,500 -2,280 Descending Denver Center
11:06AM 40.2636 -106.1875 80° East 472 543 27,300 -2,220 Descending Denver Center
11:07AM 40.2836 -106.0225 81° East 456 525 25,000 -2,280 Descending Denver Center
11:09AM 40.3042 -105.8625 80° East 442 509 22,600 -2,640 Descending Denver Center
11:10AM 40.3261 -105.6772 81° East 437 503 19,600 -1,740 Descending Denver Center
11:11AM 40.3447 -105.5275 81° East 418 481 19,100 -720 Descending Denver Center
11:12AM 40.3514 -105.4028 86° East 358 412 18,200 -1,680 Descending Denver Center
11:13AM 40.3322 -105.2675 100° East 353 406 15,600 -1,860 Descending Denver Center
11:14AM 40.3150 -105.1453 100° East 342 394 14,400 -1,260 Descending Denver Center
11:15AM 40.2992 -105.0250 100° East 335 386 13,000 -1,140 Descending Denver Center
11:16AM 40.2658 -104.9131 111° Southeast 309 356 12,100 -960 Descending Denver Center
11:17AM 40.2250 -104.8203 120° Southeast 295 339 11,100 -1,080 Descending Denver Center
11:18AM 40.1583 -104.7683 149° Southeast 279 321 9,900 -1,200 Descending Denver Center
11:19AM 40.0869 -104.7208 153° Southeast 270 311 8,700 -1,200 Descending Denver Center